Sunflower Hakata — JL6711 — position and weather

sailwx.info

Track history (hours):
 
Tides and Currents Weather Stations Pressure Air Temp Water Temp Dewpoint Dewpoint Depression Visibility Wind Speed Wind Dir Waves Ship Positions

Sunflower Hakata

Last reported at 2014-Aug-21 17:09 UTC. Time now 2014-Aug-21 20:04 UTC.
Position N 34°02' E 132°48'.

Length 194 m; draft 6.5 m.

Type: Cargo ship. MMSI: 431501764.

Date/timePositionNaut miles runAvg speedWind from/ knotsBaromVisibWave heightAir tempDewpointWater temp
2014-Aug-21 17:09N 34°02' E 132°48'1421.6
2014-Aug-21 16:29N 33°52' E 132°36'292 6.3
2014-Aug-19 18:09N 34°25' E 138°27'3720.2
2014-Aug-19 16:19N 34°42' E 139°07'1520.4
2014-Aug-19 15:33N 34°53' E 139°20'2020.0
2014-Aug-19 14:33N 35°04' E 139°40'1413.9
2014-Aug-19 13:33N 35°18' E 139°44'1615.7
2014-Aug-19 12:33N 35°33' E 139°51'5 5.4
2014-Aug-19 11:33N 35°37' E 139°48'0 0.0
2014-Aug-19 10:33N 35°37' E 139°48'0 0.0
2014-Aug-19 09:27N 35°37' E 139°48'0 0.0
2014-Aug-19 08:27N 35°37' E 139°48'0 0.0
2014-Aug-19 07:33N 35°37' E 139°48'0 0.0
2014-Aug-19 06:21N 35°37' E 139°48'0 0.0
2014-Aug-19 05:33N 35°37' E 139°48'0 0.0
2014-Aug-19 04:33N 35°37' E 139°48'0 0.0
2014-Aug-19 03:33N 35°37' E 139°48'0 0.0
2014-Aug-19 02:33N 35°37' E 139°48'0 0.0
2014-Aug-19 01:33N 35°37' E 139°48'0 0.0
2014-Aug-19 00:30N 35°37' E 139°48'0 0.0
2014-Aug-18 23:27N 35°37' E 139°48'0 0.2
2014-Aug-18 22:33N 35°37' E 139°48'0 0.0
2014-Aug-18 21:30N 35°37' E 139°48'0 0.0
2014-Aug-18 20:33N 35°37' E 139°48'0 0.0
2014-Aug-18 19:33N 35°37' E 139°48'0 0.0
2014-Aug-18 18:30N 35°37' E 139°48'0 0.0
2014-Aug-18 17:27N 35°37' E 139°48'0 0.0
2014-Aug-18 16:33N 35°37' E 139°48'0 0.0
2014-Aug-18 15:33N 35°37' E 139°48'0 0.0
2014-Aug-18 14:33N 35°37' E 139°48'0 0.0
2014-Aug-18 13:33N 35°37' E 139°48'0 0.0
2014-Aug-18 12:33N 35°37' E 139°48'0 0.0
2014-Aug-18 11:30N 35°37' E 139°48'0 0.1
2014-Aug-18 10:33N 35°37' E 139°48'0 0.0
2014-Aug-18 09:28N 35°37' E 139°48'0 0.0
2014-Aug-18 08:33N 35°37' E 139°48'0 0.0
2014-Aug-18 07:33N 35°37' E 139°48'0 0.0
2014-Aug-18 06:30N 35°37' E 139°48'0 0.0
2014-Aug-18 05:33N 35°37' E 139°48'0 0.0
2014-Aug-18 04:33N 35°37' E 139°48'0 0.0
2014-Aug-18 03:33N 35°37' E 139°48'0 0.0
2014-Aug-18 02:33N 35°37' E 139°48'0 0.0
2014-Aug-18 01:33N 35°37' E 139°48'0 0.0
2014-Aug-18 00:30N 35°37' E 139°48'19 3.2
2014-Aug-17 18:33N 35°18' E 139°45'1414.5
2014-Aug-17 17:33N 35°04' E 139°43'2121.0
2014-Aug-17 16:33N 34°51' E 139°23'6120.0
2014-Aug-17 13:32N 34°18' E 138°21'16816.9
2014-Aug-17 03:33N 34°01' E 134°58'1919.2
2014-Aug-17 02:33N 34°21' E 134°59'1716.9
2014-Aug-17 01:33N 34°37' E 134°60'11512.7
2014-Aug-16 16:33N 34°04' E 132°47'  
2014-Aug-13 16:27N 34°26' E 138°30'4019.0
2014-Aug-13 14:21N 34°46' E 139°12'1620.2
2014-Aug-13 13:33N 34°57' E 139°27'1919.4
2014-Aug-13 12:33N 35°10' E 139°45'1514.7
2014-Aug-13 11:34N 35°24' E 139°43'1313.3
2014-Aug-13 10:33N 35°37' E 139°48'0 0.1
2014-Aug-13 09:32N 35°37' E 139°48'0 0.0
2014-Aug-13 08:32N 35°37' E 139°48'0 0.0
2014-Aug-13 07:29N 35°37' E 139°48'0 0.0
2014-Aug-13 06:29N 35°37' E 139°48'0 0.0
2014-Aug-13 05:32N 35°37' E 139°48'0 0.0
2014-Aug-13 04:32N 35°37' E 139°48'0 0.0
2014-Aug-13 03:32N 35°37' E 139°48'0 0.0
2014-Aug-13 02:29N 35°37' E 139°48'0 0.0
2014-Aug-13 01:29N 35°37' E 139°48'0 0.0
2014-Aug-13 00:26N 35°37' E 139°48'0 0.0
2014-Aug-12 23:20N 35°37' E 139°48'0 0.0
2014-Aug-12 22:32N 35°37' E 139°48'0 0.0
2014-Aug-12 21:29N 35°37' E 139°48'0 0.0
2014-Aug-12 20:34N 35°37' E 139°48'7 6.7
2014-Aug-12 19:33N 35°31' E 139°52'1514.8
2014-Aug-12 18:33N 35°18' E 139°45'1515.0
2014-Aug-12 17:33N 35°03' E 139°40'2019.7
2014-Aug-12 16:33N 34°51' E 139°21'6320.2
2014-Aug-12 13:25N 34°16' E 138°17'16618.6
2014-Aug-12 04:31N 33°58' E 134°58'2222.8
2014-Aug-12 03:32N 34°20' E 134°59'1716.9
2014-Aug-12 02:33N 34°37' E 134°58'  
Track history (hours):
 
Tides and Currents Weather Stations Pressure Air Temp Water Temp Dewpoint Dewpoint Depression Visibility Wind Speed Wind Dir Waves Ship Positions

Sunflower Hakata

Last reported at 2014-Aug-21 17:09 UTC. Time now 2014-Aug-21 20:04 UTC.
Position N 34°02' E 132°48'.

Length 194 m; draft 6.5 m.

Type: Cargo ship. MMSI: 431501764.

Date/timePositionNaut miles runAvg speedWind from/ knotsBaromVisibWave heightAir tempDewpointWater temp
2014-Aug-21 17:09N 34°02' E 132°48'1421.6
2014-Aug-21 16:29N 33°52' E 132°36'292 6.3
2014-Aug-19 18:09N 34°25' E 138°27'3720.2
2014-Aug-19 16:19N 34°42' E 139°07'1520.4
2014-Aug-19 15:33N 34°53' E 139°20'2020.0
2014-Aug-19 14:33N 35°04' E 139°40'1413.9
2014-Aug-19 13:33N 35°18' E 139°44'1615.7
2014-Aug-19 12:33N 35°33' E 139°51'5 5.4
2014-Aug-19 11:33N 35°37' E 139°48'0 0.0
2014-Aug-19 10:33N 35°37' E 139°48'0 0.0
2014-Aug-19 09:27N 35°37' E 139°48'0 0.0
2014-Aug-19 08:27N 35°37' E 139°48'0 0.0
2014-Aug-19 07:33N 35°37' E 139°48'0 0.0
2014-Aug-19 06:21N 35°37' E 139°48'0 0.0
2014-Aug-19 05:33N 35°37' E 139°48'0 0.0
2014-Aug-19 04:33N 35°37' E 139°48'0 0.0
2014-Aug-19 03:33N 35°37' E 139°48'0 0.0
2014-Aug-19 02:33N 35°37' E 139°48'0 0.0
2014-Aug-19 01:33N 35°37' E 139°48'0 0.0
2014-Aug-19 00:30N 35°37' E 139°48'0 0.0
2014-Aug-18 23:27N 35°37' E 139°48'0 0.2
2014-Aug-18 22:33N 35°37' E 139°48'0 0.0
2014-Aug-18 21:30N 35°37' E 139°48'0 0.0
2014-Aug-18 20:33N 35°37' E 139°48'0 0.0
2014-Aug-18 19:33N 35°37' E 139°48'0 0.0
2014-Aug-18 18:30N 35°37' E 139°48'0 0.0
2014-Aug-18 17:27N 35°37' E 139°48'0 0.0
2014-Aug-18 16:33N 35°37' E 139°48'0 0.0
2014-Aug-18 15:33N 35°37' E 139°48'0 0.0
2014-Aug-18 14:33N 35°37' E 139°48'0 0.0
2014-Aug-18 13:33N 35°37' E 139°48'0 0.0
2014-Aug-18 12:33N 35°37' E 139°48'0 0.0
2014-Aug-18 11:30N 35°37' E 139°48'0 0.1
2014-Aug-18 10:33N 35°37' E 139°48'0 0.0
2014-Aug-18 09:28N 35°37' E 139°48'0 0.0
2014-Aug-18 08:33N 35°37' E 139°48'0 0.0
2014-Aug-18 07:33N 35°37' E 139°48'0 0.0
2014-Aug-18 06:30N 35°37' E 139°48'0 0.0
2014-Aug-18 05:33N 35°37' E 139°48'0 0.0
2014-Aug-18 04:33N 35°37' E 139°48'0 0.0
2014-Aug-18 03:33N 35°37' E 139°48'0 0.0
2014-Aug-18 02:33N 35°37' E 139°48'0 0.0
2014-Aug-18 01:33N 35°37' E 139°48'0 0.0
2014-Aug-18 00:30N 35°37' E 139°48'19 3.2
2014-Aug-17 18:33N 35°18' E 139°45'1414.5
2014-Aug-17 17:33N 35°04' E 139°43'2121.0
2014-Aug-17 16:33N 34°51' E 139°23'6120.0
2014-Aug-17 13:32N 34°18' E 138°21'16816.9
2014-Aug-17 03:33N 34°01' E 134°58'1919.2
2014-Aug-17 02:33N 34°21' E 134°59'1716.9
2014-Aug-17 01:33N 34°37' E 134°60'11512.7
2014-Aug-16 16:33N 34°04' E 132°47'  
2014-Aug-13 16:27N 34°26' E 138°30'4019.0
2014-Aug-13 14:21N 34°46' E 139°12'1620.2
2014-Aug-13 13:33N 34°57' E 139°27'1919.4
2014-Aug-13 12:33N 35°10' E 139°45'1514.7
2014-Aug-13 11:34N 35°24' E 139°43'1313.3
2014-Aug-13 10:33N 35°37' E 139°48'0 0.1
2014-Aug-13 09:32N 35°37' E 139°48'0 0.0
2014-Aug-13 08:32N 35°37' E 139°48'0 0.0
2014-Aug-13 07:29N 35°37' E 139°48'0 0.0
2014-Aug-13 06:29N 35°37' E 139°48'0 0.0
2014-Aug-13 05:32N 35°37' E 139°48'0 0.0
2014-Aug-13 04:32N 35°37' E 139°48'0 0.0
2014-Aug-13 03:32N 35°37' E 139°48'0 0.0
2014-Aug-13 02:29N 35°37' E 139°48'0 0.0
2014-Aug-13 01:29N 35°37' E 139°48'0 0.0
2014-Aug-13 00:26N 35°37' E 139°48'0 0.0
2014-Aug-12 23:20N 35°37' E 139°48'0 0.0
2014-Aug-12 22:32N 35°37' E 139°48'0 0.0
2014-Aug-12 21:29N 35°37' E 139°48'0 0.0
2014-Aug-12 20:34N 35°37' E 139°48'7 6.7
2014-Aug-12 19:33N 35°31' E 139°52'1514.8
2014-Aug-12 18:33N 35°18' E 139°45'1515.0
2014-Aug-12 17:33N 35°03' E 139°40'2019.7
2014-Aug-12 16:33N 34°51' E 139°21'6320.2
2014-Aug-12 13:25N 34°16' E 138°17'16618.6
2014-Aug-12 04:31N 33°58' E 134°58'2222.8
2014-Aug-12 03:32N 34°20' E 134°59'1716.9
2014-Aug-12 02:33N 34°37' E 134°58'  

Dump ship's entire track history